Aviation Digital Data Service (ADDS)

Output produced by METARs form (2013 UTC 18 April 2021)
found at http://www.aviationweather.gov/metar/data/
 
Forecast for: EDDK (KOELN/BONN , DE)
Text: TAF EDDK 181700Z 1818/1924 33005KT 9999 SCT040
Forecast period: 1800 UTC 18 April 2021 to 0000 UTC 20 April 2021
Forecast type: FROM: standard forecast or significant change
Winds: from the NNW (330 degrees) at 6 MPH (5 knots; 2.6 m/s)
Visibility: 6 or more miles (10+ km)
Ceiling: at least 12,000 feet AGL
Clouds: scattered clouds at 4000 feet AGL
Weather: no significant weather forecast for this period
Text: TEMPO 1902/1907 4000 SHRA BKN014TCU
Forecast period: 0200 to 0700 UTC 19 April 2021
Forecast type: TEMPORARY: The following changes expected for less than half the time period
Visibility: 2.49 miles (4.01 km)
Ceiling: 1400 feet AGL
Clouds: broken clouds at 1400 feet AGL
Weather: SHRA  (rain showers)
Text: PROB30
Forecast period: 0600 to 0900 UTC 19 April 2021
Forecast type: TEMPORARY: The following changes expected for less than half the time period
Visibility: missing
Ceiling: 700 feet AGL
Clouds: broken clouds at 700 feet AGL
Weather: no significant weather forecast for this period
Text: TEMPO 1906/1909 BKN007
Forecast period: 1300 to 1600 UTC 19 April 2021
Forecast type: TEMPORARY: The following changes expected for less than half the time period
Visibility: missing
Ceiling: 3000 feet AGL
Clouds: broken clouds at 3000 feet AGL
Weather: SHRA  (rain showers)